sensor_id;sensor_type;location;lat;lon;timestamp;temperature;humidity
27870;DHT22;15225;50.730;4.244;2023-03-26T17:12:49;8.90;65.90
27870;DHT22;15225;50.730;4.244;2023-03-26T17:15:47;9.20;55.30
27870;DHT22;15225;50.730;4.244;2023-03-26T17:18:39;9.60;40.70
27870;DHT22;15225;50.730;4.244;2023-03-26T17:26:28;10.60;1.00
27870;DHT22;15225;50.730;4.244;2023-03-26T17:33:48;10.70;99.90
27870;DHT22;15225;50.730;4.244;2023-03-26T17:36:29;10.60;99.90
27870;DHT22;15225;50.730;4.244;2023-03-26T17:39:01;10.40;99.90
27870;DHT22;15225;50.730;4.244;2023-03-26T17:41:50;10.70;99.90
27870;DHT22;15225;50.730;4.244;2023-03-26T17:44:45;10.60;99.90
27870;DHT22;15225;50.730;4.244;2023-03-26T17:47:33;10.70;99.90
27870;DHT22;15225;50.730;4.244;2023-03-26T17:55:33;10.70;99.90
27870;DHT22;15225;50.730;4.244;2023-03-26T17:58:05;10.70;99.90
27870;DHT22;15225;50.730;4.244;2023-03-26T18:00:40;10.90;99.90
27870;DHT22;15225;50.730;4.244;2023-03-26T18:03:28;10.80;99.90
27870;DHT22;15225;50.730;4.244;2023-03-26T18:14:40;11.50;1.00
27870;DHT22;15225;50.730;4.244;2023-03-26T18:17:06;11.60;99.90
27870;DHT22;15225;50.730;4.244;2023-03-26T18:19:47;11.80;99.90
27870;DHT22;15225;50.730;4.244;2023-03-26T18:22:22;11.50;99.90
27870;DHT22;15225;50.730;4.244;2023-03-26T18:24:50;11.60;99.90
27870;DHT22;15225;50.730;4.244;2023-03-26T18:27:19;11.60;1.00
27870;DHT22;15225;50.730;4.244;2023-03-26T18:30:00;11.60;99.90
27870;DHT22;15225;50.730;4.244;2023-03-26T18:32:28;11.50;99.90
27870;DHT22;15225;50.730;4.244;2023-03-26T18:35:19;11.50;94.00
27870;DHT22;15225;50.730;4.244;2023-03-26T18:37:46;11.20;66.70
27870;DHT22;15225;50.730;4.244;2023-03-26T18:40:19;10.90;7.00
27870;DHT22;15225;50.730;4.244;2023-03-26T18:42:54;10.70;99.90
27870;DHT22;15225;50.730;4.244;2023-03-26T18:47:53;10.50;99.90
27870;DHT22;15225;50.730;4.244;2023-03-26T18:50:28;10.40;1.00
27870;DHT22;15225;50.730;4.244;2023-03-26T18:52:57;10.60;99.90
27870;DHT22;15225;50.730;4.244;2023-03-26T18:55:29;10.60;1.00
27870;DHT22;15225;50.730;4.244;2023-03-26T18:57:56;10.70;99.90
27870;DHT22;15225;50.730;4.244;2023-03-26T19:00:26;10.60;99.90
27870;DHT22;15225;50.730;4.244;2023-03-26T19:03:19;10.40;99.90
27870;DHT22;15225;50.730;4.244;2023-03-26T19:05:46;10.60;1.00
27870;DHT22;15225;50.730;4.244;2023-03-26T19:08:13;10.40;1.00
27870;DHT22;15225;50.730;4.244;2023-03-26T19:10:40;10.10;99.90
27870;DHT22;15225;50.730;4.244;2023-03-26T19:13:13;10.00;13.20
27870;DHT22;15225;50.730;4.244;2023-03-26T19:15:40;10.10;99.90
27870;DHT22;15225;50.730;4.244;2023-03-26T19:18:07;10.10;1.00
27870;DHT22;15225;50.730;4.244;2023-03-26T19:20:58;10.20;99.90
27870;DHT22;15225;50.730;4.244;2023-03-26T19:23:28;10.30;99.90
27870;DHT22;15225;50.730;4.244;2023-03-26T19:25:57;10.00;99.90
27870;DHT22;15225;50.730;4.244;2023-03-26T19:28:30;10.00;99.90
27870;DHT22;15225;50.730;4.244;2023-03-26T19:31:04;10.20;31.40
27870;DHT22;15225;50.730;4.244;2023-03-26T19:33:33;10.20;99.90
27870;DHT22;15225;50.730;4.244;2023-03-26T19:36:21;10.00;1.00
27870;DHT22;15225;50.730;4.244;2023-03-26T19:38:51;9.90;99.90
27870;DHT22;15225;50.730;4.244;2023-03-26T19:41:23;9.90;1.00
27870;DHT22;15225;50.730;4.244;2023-03-26T19:43:53;10.00;99.90
27870;DHT22;15225;50.730;4.244;2023-03-26T19:46:23;9.90;1.00
27870;DHT22;15225;50.730;4.244;2023-03-26T19:48:51;9.80;1.00
27870;DHT22;15225;50.730;4.244;2023-03-26T19:54:32;9.80;1.00
27870;DHT22;15225;50.730;4.244;2023-03-26T19:56:32;9.90;99.90
27870;DHT22;15225;50.730;4.244;2023-03-26T19:59:01;9.70;99.90
27870;DHT22;15225;50.730;4.244;2023-03-26T20:01:28;9.70;99.90
27870;DHT22;15225;50.730;4.244;2023-03-26T20:03:58;9.70;99.90
27870;DHT22;15225;50.730;4.244;2023-03-26T20:06:25;9.60;99.90
